Time;durP1;ratioP1;P1;durP2;ratioP2;P2;SDS_P1;SDS_P2;PMS_P1;PMS_P2;Temp;Humidity;BMP_temperature;BMP_pressure;BME280_temperature;BME280_humidity;BME280_pressure;Samples;Min_cycle;Max_cycle;Signal;HPM_P1;HPM_P2
2021/04/08 00:01:21;;;;;;;5.20;3.47;;;;;;;;;;5052866;28;20416;-72
2021/04/08 00:03:47;;;;;;;5.70;3.90;;;;;;;;;;5051003;28;20923;-72
2021/04/08 00:06:13;;;;;;;9.00;4.30;;;4.50;99.90;;;;;;5052836;28;20401;-71
2021/04/08 00:08:39;;;;;;;5.80;3.40;;;0.70;99.90;;;;;;5052093;28;20434;-71
2021/04/08 00:11:06;;;;;;;5.57;3.60;;;0.70;99.90;;;;;;5051771;28;20947;-72
2021/04/08 00:13:32;;;;;;;4.40;3.17;;;0.70;99.90;;;;;;5050833;28;20457;-72
2021/04/08 00:15:57;;;;;;;5.50;3.87;;;0.70;99.90;;;;;;5052823;28;20442;-71
2021/04/08 00:18:23;;;;;;;4.97;3.60;;;0.60;99.90;;;;;;5051917;28;20230;-72
2021/04/08 00:20:48;;;;;;;8.53;3.40;;;0.60;99.90;;;;;;5052854;28;20202;-71
2021/04/08 00:23:14;;;;;;;5.90;3.57;;;0.70;99.90;;;;;;5051824;28;20638;-72
2021/04/08 00:25:40;;;;;;;5.13;3.40;;;0.60;99.90;;;;;;5053474;28;20561;-71
2021/04/08 00:28:06;;;;;;;7.20;3.30;;;0.60;99.90;;;;;;5051807;28;20252;-71
2021/04/08 00:30:42;;;;;;;5.20;3.67;;;0.60;99.90;;;;;;5052798;28;20173;-72
2021/04/08 00:33:12;;;;;;;6.77;3.70;;;0.60;99.90;;;;;;5052174;28;20430;-71
2021/04/08 00:35:40;;;;;;;5.50;3.60;;;0.60;99.90;;;;;;5052443;28;20408;-72
2021/04/08 00:38:06;;;;;;;4.50;3.83;;;0.60;99.90;;;;;;5053641;28;20427;-72
2021/04/08 00:40:32;;;;;;;8.50;3.80;;;0.60;99.90;;;;;;5056248;28;20483;-72
2021/04/08 00:42:58;;;;;;;4.30;3.30;;;0.60;99.90;;;;;;5055016;28;20469;-72
2021/04/08 00:45:23;;;;;;;5.23;2.97;;;0.60;99.90;;;;;;5056773;28;20196;-72
2021/04/08 00:47:49;;;;;;;5.17;3.33;;;0.60;99.90;;;;;;5054517;28;20248;-72
2021/04/08 00:50:16;;;;;;;4.70;3.03;;;0.60;99.90;;;;;;5056205;28;20222;-72
2021/04/08 00:52:45;;;;;;;4.10;3.70;;;0.60;99.90;;;;;;5055232;28;20184;-72
2021/04/08 00:55:12;;;;;;;5.10;3.77;;;0.60;99.90;;;;;;5056042;28;20418;-72
2021/04/08 00:57:38;;;;;;;4.87;3.30;;;0.60;99.90;;;;;;5055226;28;20442;-73
2021/04/08 01:00:06;;;;;;;7.17;3.50;;;0.60;99.90;;;;;;5055610;28;20898;-72
2021/04/08 01:02:33;;;;;;;4.40;2.77;;;0.60;99.90;;;;;;5055693;28;20679;-72
2021/04/08 01:04:59;;;;;;;8.13;3.60;;;0.60;99.90;;;;;;5055122;28;20861;-72
2021/04/08 01:07:25;;;;;;;6.50;3.50;;;0.60;99.90;;;;;;5056220;28;20418;-73
2021/04/08 01:09:50;;;;;;;5.97;3.00;;;0.70;99.90;;;;;;5054819;28;20807;-73
2021/04/08 01:12:16;;;;;;;4.50;3.37;;;0.70;99.90;;;;;;5055511;28;20215;-73
2021/04/08 01:14:43;;;;;;;7.40;2.93;;;0.70;99.90;;;;;;5054904;28;20181;-73
2021/04/08 01:17:17;;;;;;;4.57;3.00;;;0.70;99.90;;;;;;5055659;28;20173;-73
2021/04/08 01:19:43;;;;;;;6.03;3.07;;;0.70;99.90;;;;;;5071042;28;20808;-73
2021/04/08 01:22:24;;;;;;;6.80;2.87;;;0.70;99.90;;;;;;5067949;28;20440;-72
2021/04/08 01:25:15;;;;;;;4.67;2.77;;;0.70;99.90;;;;;;5070726;28;20531;-72
2021/04/08 01:27:58;;;;;;;5.60;3.30;;;0.70;99.90;;;;;;5075672;28;20480;-72
2021/04/08 01:30:40;;;;;;;6.90;3.67;;;0.80;99.90;;;;;;5056738;28;20438;-72
2021/04/08 01:33:13;;;;;;;10.50;3.40;;;0.80;99.90;;;;;;5055602;28;20404;-72
2021/04/08 01:35:41;;;;;;;3.90;2.40;;;0.80;99.90;;;;;;5054446;28;20460;-72
2021/04/08 01:38:31;;;;;;;3.87;3.20;;;0.80;99.90;;;;;;5055239;28;20461;-73
2021/04/08 01:40:58;;;;;;;3.90;2.93;;;0.90;99.90;;;;;;5035568;28;20440;-72
2021/04/08 01:43:32;;;;;;;3.23;2.70;;;0.90;99.90;;;;;;5035306;28;20441;-72
2021/04/08 01:45:59;;;;;;;4.63;2.67;;;0.90;99.90;;;;;;5070158;28;20430;-72
2021/04/08 01:48:28;;;;;;;3.43;2.63;;;0.90;99.90;;;;;;5074825;28;20479;-72
2021/04/08 01:50:57;;;;;;;4.17;2.80;;;0.90;99.90;;;;;;5054368;28;20450;-72
2021/04/08 01:53:23;;;;;;;3.97;2.70;;;0.90;99.90;;;;;;5055175;28;20414;-72
2021/04/08 01:55:53;;;;;;;4.70;3.13;;;0.90;99.90;;;;;;5054347;28;20525;-72
2021/04/08 01:58:21;;;;;;;3.63;2.80;;;0.90;99.90;;;;;;5055337;28;20391;-72
2021/04/08 02:00:47;;;;;;;8.20;3.33;;;0.90;99.90;;;;;;5053446;28;20471;-72
2021/04/08 02:03:15;;;;;;;5.23;2.63;;;0.90;99.90;;;;;;5054491;28;20438;-72
2021/04/08 02:05:41;;;;;;;4.17;3.00;;;0.90;99.90;;;;;;5054007;28;20970;-72
2021/04/08 02:08:08;;;;;;;6.70;3.37;;;0.90;99.90;;;;;;5054652;28;20868;-72
2021/04/08 02:10:35;;;;;;;5.07;2.07;;;1.00;99.90;;;;;;5065528;28;20466;-72
2021/04/08 02:13:03;;;;;;;3.90;2.97;;;1.00;99.90;;;;;;5056676;28;20430;-72
2021/04/08 02:15:30;;;;;;;3.67;2.20;;;1.00;99.90;;;;;;5043553;28;20431;-72
2021/04/08 02:17:59;;;;;;;3.23;2.07;;;1.00;99.90;;;;;;5034801;28;20404;-71
2021/04/08 02:20:29;;;;;;;3.27;2.97;;;1.10;99.90;;;;;;5044456;28;20464;-71
2021/04/08 02:22:57;;;;;;;2.83;2.20;;;1.00;99.90;;;;;;5052968;28;20796;-72
2021/04/08 02:25:28;;;;;;;3.17;2.57;;;1.10;99.90;;;;;;5056239;28;20407;-72
2021/04/08 02:27:55;;;;;;;3.50;2.63;;;1.00;99.90;;;;;;5054456;28;20511;-72
2021/04/08 02:30:24;;;;;;;2.90;2.33;;;1.10;99.90;;;;;;5055520;28;20416;-72
2021/04/08 02:32:50;;;;;;;3.37;2.40;;;1.10;99.90;;;;;;5054006;28;20516;-72
2021/04/08 02:35:17;;;;;;;2.93;2.30;;;1.10;99.90;;;;;;5054469;28;20765;-71
2021/04/08 02:37:44;;;;;;;7.57;2.50;;;1.10;99.90;;;;;;5053364;28;20406;-72
2021/04/08 02:40:14;;;;;;;3.83;2.17;;;1.10;99.90;;;;;;5054220;28;20457;-71
2021/04/08 02:42:39;;;;;;;3.77;2.67;;;1.10;99.90;;;;;;5053224;28;20497;-72
2021/04/08 02:45:07;;;;;;;3.27;2.20;;;1.20;99.90;;;;;;5053934;28;20943;-72
2021/04/08 02:47:33;;;;;;;7.30;2.90;;;1.10;99.90;;;;;;5052930;28;20644;-72
2021/04/08 02:49:59;;;;;;;6.80;2.77;;;1.10;99.90;;;;;;5053814;28;20410;-72
2021/04/08 02:52:50;;;;;;;3.30;2.33;;;1.20;99.90;;;;;;5053891;28;20664;-72
2021/04/08 02:55:23;;;;;;;4.97;2.53;;;1.20;99.90;;;;;;5053908;28;20485;-72
2021/04/08 02:58:02;;;;;;;4.43;2.53;;;1.10;99.90;;;;;;5053120;28;20394;-71
2021/04/08 03:00:39;;;;;;;8.47;3.30;;;1.20;99.90;;;;;;5052128;28;20483;-71
2021/04/08 03:03:11;;;;;;;5.53;2.73;;;1.20;99.90;;;;;;5053056;28;20513;-71
2021/04/08 03:05:40;;;;;;;4.50;2.70;;;1.20;99.90;;;;;;5054085;28;20805;-72
2021/04/08 03:08:09;;;;;;;3.37;2.27;;;1.20;99.90;;;;;;5052475;28;20514;-71
2021/04/08 03:10:39;;;;;;;3.20;2.27;;;1.20;99.90;;;;;;5053341;28;20530;-72
2021/04/08 03:13:07;;;;;;;7.10;2.70;;;1.10;99.90;;;;;;5052472;28;20443;-72
2021/04/08 03:15:37;;;;;;;3.40;3.10;;;1.20;99.90;;;;;;5053371;28;20434;-72
2021/04/08 03:18:14;;;;;;;2.80;2.30;;;1.20;99.90;;;;;;5051208;28;20437;-71
2021/04/08 03:20:40;;;;;;;3.70;2.57;;;1.10;99.90;;;;;;5035109;28;20520;-71
2021/04/08 03:23:09;;;;;;;4.97;3.33;;;1.10;99.90;;;;;;5054980;28;20432;-72
2021/04/08 03:25:37;;;;;;;7.20;2.60;;;1.10;99.90;;;;;;5073503;28;20406;-72
2021/04/08 03:28:04;;;;;;;5.20;3.10;;;1.10;99.90;;;;;;5060412;28;20425;-72
2021/04/08 03:30:30;;;;;;;4.30;2.63;;;1.00;99.90;;;;;;5073037;28;20966;-72
2021/04/08 03:32:56;;;;;;;5.90;3.30;;;1.00;99.90;;;;;;5070500;28;20509;-71
2021/04/08 03:35:23;;;;;;;5.63;2.70;;;1.00;99.90;;;;;;5053049;28;20187;-72
2021/04/08 03:37:49;;;;;;;3.90;2.80;;;0.90;99.90;;;;;;5052458;28;20461;-71
2021/04/08 03:40:15;;;;;;;4.07;3.10;;;0.80;99.90;;;;;;5052531;28;20963;-72
2021/04/08 03:42:43;;;;;;;7.70;3.13;;;0.80;99.90;;;;;;5053078;28;20890;-72
2021/04/08 03:45:10;;;;;;;7.23;2.73;;;0.70;99.90;;;;;;5052257;28;20429;-72
2021/04/08 03:47:41;;;;;;;5.00;3.23;;;0.70;99.90;;;;;;5053442;28;20426;-72
2021/04/08 03:50:10;;;;;;;4.47;3.60;;;0.70;99.90;;;;;;5052303;28;20438;-72
2021/04/08 03:52:38;;;;;;;4.40;2.93;;;0.70;99.90;;;;;;5053213;28;20430;-72
2021/04/08 03:55:05;;;;;;;4.03;2.43;;;0.70;99.90;;;;;;5052447;28;20464;-72
2021/04/08 03:57:34;;;;;;;3.30;2.50;;;0.60;99.90;;;;;;5053502;28;20942;-72
2021/04/08 04:00:03;;;;;;;3.63;2.90;;;0.60;99.90;;;;;;5052097;28;20459;-72
2021/04/08 04:02:31;;;;;;;3.50;2.00;;;0.60;99.90;;;;;;5053207;28;20445;-72
2021/04/08 04:04:57;;;;;;;5.57;3.00;;;0.50;99.90;;;;;;5052208;28;20484;-72
2021/04/08 04:07:22;;;;;;;4.60;3.13;;;0.50;99.90;;;;;;5053182;28;20456;-71
2021/04/08 04:09:48;;;;;;;3.30;2.80;;;0.60;99.90;;;;;;5061579;28;20444;-71
2021/04/08 04:12:15;;;;;;;4.97;3.13;;;0.60;99.90;;;;;;5075674;28;20212;-71
2021/04/08 04:14:44;;;;;;;3.10;2.80;;;0.60;99.90;;;;;;5045686;28;20533;-71
2021/04/08 04:17:24;;;;;;;4.80;3.00;;;0.60;99.90;;;;;;5037172;28;20500;-71
2021/04/08 04:19:50;;;;;;;5.70;2.60;;;0.70;99.90;;;;;;5046949;28;20447;-71
2021/04/08 04:22:16;;;;;;;6.10;2.77;;;0.70;99.90;;;;;;5057068;28;20474;-71
2021/04/08 04:24:42;;;;;;;4.07;2.73;;;0.70;99.90;;;;;;5056013;28;20210;-70
2021/04/08 04:27:07;;;;;;;6.80;3.60;;;0.80;99.90;;;;;;5057034;28;20267;-71
2021/04/08 04:29:33;;;;;;;3.80;2.70;;;0.80;99.90;;;;;;5056077;28;20176;-71
2021/04/08 04:31:59;;;;;;;8.57;3.07;;;0.80;99.90;;;;;;5057045;28;20195;-71
2021/04/08 04:34:24;;;;;;;3.70;2.93;;;0.80;99.90;;;;;;5056855;28;20182;-71
2021/04/08 04:36:50;;;;;;;4.30;2.93;;;0.70;99.90;;;;;;5063958;28;20284;-71
2021/04/08 04:39:16;;;;;;;4.27;2.80;;;0.70;99.90;;;;;;5057261;28;20192;-71
2021/04/08 04:41:41;;;;;;;6.60;3.00;;;0.70;99.90;;;;;;5056308;28;20243;-71
2021/04/08 04:44:07;;;;;;;3.90;3.20;;;0.80;99.90;;;;;;5055947;28;20220;-71
2021/04/08 04:46:33;;;;;;;4.87;3.03;;;0.80;99.90;;;;;;5056652;28;20176;-71
2021/04/08 04:48:59;;;;;;;8.30;3.40;;;0.80;99.90;;;;;;5069525;28;20175;-71
2021/04/08 04:51:25;;;;;;;3.83;2.83;;;0.80;99.90;;;;;;5076397;28;20184;-71
2021/04/08 04:53:51;;;;;;;6.90;3.40;;;0.80;99.90;;;;;;5061827;28;20520;-71
2021/04/08 04:56:16;;;;;;;3.77;2.97;;;0.80;99.90;;;;;;5056592;28;20190;-72
2021/04/08 04:58:42;;;;;;;6.40;2.77;;;0.90;99.90;;;;;;5055809;28;20205;-72
2021/04/08 05:01:08;;;;;;;4.20;2.90;;;0.90;99.90;;;;;;5038189;28;20254;-72
2021/04/08 05:03:34;;;;;;;7.47;3.70;;;1.00;99.90;;;;;;5037892;28;20179;-72
2021/04/08 05:05:59;;;;;;;11.93;7.27;;;1.00;99.90;;;;;;5056306;28;20463;-71
2021/04/08 05:08:25;;;;;;;4.00;3.30;;;1.10;99.90;;;;;;5055243;28;20183;-71
2021/04/08 05:10:51;;;;;;;5.40;3.40;;;1.10;99.90;;;;;;5056061;28;20254;-71
2021/04/08 05:13:16;;;;;;;2.80;2.43;;;1.10;99.90;;;;;;5062169;28;20214;-72
2021/04/08 05:15:42;;;;;;;3.47;3.17;;;1.10;99.90;;;;;;5063901;28;20213;-71
2021/04/08 05:18:08;;;;;;;10.10;3.87;;;1.10;99.90;;;;;;5055051;28;20179;-71
2021/04/08 05:20:34;;;;;;;5.83;3.87;;;1.10;99.90;;;;;;5055877;28;20210;-71
2021/04/08 05:22:59;;;;;;;7.00;2.80;;;1.20;99.90;;;;;;5057964;28;20187;-71
2021/04/08 05:25:25;;;;;;;6.33;3.90;;;1.20;99.90;;;;;;5076090;28;20172;-73
2021/04/08 05:27:50;;;;;;;6.00;3.63;;;1.20;99.90;;;;;;5071748;28;20173;-70
2021/04/08 05:30:17;;;;;;;5.60;3.90;;;1.20;99.90;;;;;;5055601;28;20199;-70
2021/04/08 05:32:42;;;;;;;7.10;4.20;;;1.20;99.90;;;;;;5054941;28;20212;-71
2021/04/08 05:35:08;;;;;;;6.43;4.40;;;1.20;99.90;;;;;;5055733;28;20448;-70
2021/04/08 05:37:34;;;;;;;5.43;3.70;;;1.30;99.90;;;;;;5054781;28;20578;-71
2021/04/08 05:40:00;;;;;;;6.00;3.87;;;1.20;99.90;;;;;;5055438;28;20485;-70
2021/04/08 05:42:25;;;;;;;4.67;3.33;;;1.30;99.90;;;;;;5055573;28;20671;-70
2021/04/08 05:44:51;;;;;;;7.73;3.67;;;1.30;99.90;;;;;;5054389;28;20176;-70
2021/04/08 05:47:17;;;;;;;4.10;2.97;;;1.30;99.90;;;;;;5055508;28;20174;-71
2021/04/08 05:49:42;;;;;;;6.50;3.50;;;1.40;99.90;;;;;;5054395;28;20194;-70
2021/04/08 05:52:08;;;;;;;5.00;3.77;;;1.40;99.90;;;;;;5055251;28;20282;-70
2021/04/08 05:54:34;;;;;;;4.27;3.70;;;1.40;99.90;;;;;;5054541;28;20192;-71
2021/04/08 05:56:59;;;;;;;6.37;3.30;;;1.40;99.90;;;;;;5055874;28;20672;-71
2021/04/08 05:59:25;;;;;;;8.47;4.00;;;1.40;99.90;;;;;;5068259;28;20200;-71
2021/04/08 06:01:51;;;;;;;10.47;3.80;;;1.40;99.90;;;;;;5075370;28;20192;-71
2021/04/08 06:04:17;;;;;;;8.20;3.50;;;1.40;99.90;;;;;;5056078;28;20194;-70
2021/04/08 06:06:42;;;;;;;3.77;2.90;;;1.40;99.90;;;;;;5055299;28;20578;-70
2021/04/08 06:09:08;;;;;;;6.37;3.93;;;1.50;99.90;;;;;;5053937;28;20458;-70
2021/04/08 06:11:34;;;;;;;4.90;3.73;;;1.50;99.90;;;;;;5036859;28;20218;-70
2021/04/08 06:14:00;;;;;;;6.00;3.60;;;1.60;99.90;;;;;;5058194;28;20174;-70
2021/04/08 06:16:25;;;;;;;6.27;3.60;;;1.60;99.90;;;;;;5057100;28;20172;-71
2021/04/08 06:18:51;;;;;;;4.20;3.10;;;1.70;99.90;;;;;;5069055;28;20241;-71
2021/04/08 06:21:17;;;;;;;5.40;3.00;;;1.70;99.90;;;;;;5036502;28;20287;-71
2021/04/08 06:23:43;;;;;;;6.57;2.97;;;1.80;99.90;;;;;;5053583;28;20174;-71
2021/04/08 06:26:08;;;;;;;5.27;2.97;;;1.80;99.90;;;;;;5053161;28;20263;-71
2021/04/08 06:28:34;;;;;;;4.27;3.07;;;1.80;99.90;;;;;;5053681;28;20900;-71
2021/04/08 06:30:59;;;;;;;4.10;3.10;;;1.70;99.90;;;;;;5054512;28;20199;-71
2021/04/08 06:33:25;;;;;;;4.40;3.13;;;1.70;99.90;;;;;;5053458;28;20173;-72
2021/04/08 06:35:51;;;;;;;8.03;3.10;;;1.70;99.90;;;;;;5054057;28;20259;-71
2021/04/08 06:38:16;;;;;;;10.53;3.50;;;1.70;99.90;;;;;;5054387;28;20186;-72
2021/04/08 06:40:42;;;;;;;4.20;3.30;;;1.70;99.90;;;;;;5053023;28;20711;-72
2021/04/08 06:43:10;;;;;;;6.57;3.80;;;1.70;99.90;;;;;;5054043;28;20676;-72
2021/04/08 06:45:39;;;;;;;5.37;3.50;;;1.80;99.90;;;;;;5053242;28;20636;-71
2021/04/08 06:48:20;;;;;;;4.23;3.80;;;1.90;99.90;;;;;;5054818;28;20399;-72
2021/04/08 06:50:48;;;;;;;7.17;3.60;;;2.10;99.90;;;;;;5053476;28;20448;-71
2021/04/08 06:53:14;;;;;;;3.80;2.97;;;2.10;99.90;;;;;;5052690;28;20433;-71
2021/04/08 06:55:42;;;;;;;7.13;3.70;;;2.20;99.90;;;;;;5047414;28;20822;-71
2021/04/08 06:58:09;;;;;;;6.50;3.60;;;2.20;99.90;;;;;;5050275;28;20460;-71
2021/04/08 07:00:35;;;;;;;4.23;3.20;;;2.20;99.90;;;;;;5051014;28;20471;-71
2021/04/08 07:03:07;;;;;;;12.63;3.33;;;2.10;99.90;;;;;;5050613;28;20910;-71
2021/04/08 07:05:33;;;;;;;9.90;3.50;;;2.10;99.90;;;;;;5048894;28;20535;-71
2021/04/08 07:07:59;;;;;;;4.97;4.23;;;2.10;99.90;;;;;;5034544;28;20423;-71
2021/04/08 07:10:26;;;;;;;3.70;3.20;;;2.10;99.90;;;;;;5051629;28;20433;-71
2021/04/08 07:12:55;;;;;;;5.07;3.57;;;2.20;99.90;;;;;;5052304;28;20259;-71
2021/04/08 07:15:22;;;;;;;7.63;3.70;;;2.20;99.90;;;;;;5061597;28;20525;-71
2021/04/08 07:17:49;;;;;;;5.13;3.27;;;2.40;99.90;;;;;;5050527;28;20979;-69
2021/04/08 07:20:14;;;;;;;6.13;3.50;;;2.50;99.90;;;;;;5048342;28;20527;-68
2021/04/08 07:22:40;;;;;;;4.77;3.33;;;2.60;99.90;;;;;;5050061;28;20421;-69
2021/04/08 07:25:22;;;;;;;7.50;4.03;;;2.70;99.90;;;;;;5052494;28;20283;-69
2021/04/08 07:27:48;;;;;;;5.73;3.77;;;2.70;99.90;;;;;;5032652;28;20420;-69
2021/04/08 07:30:18;;;;;;;6.50;3.30;;;2.60;99.90;;;;;;5045786;28;20427;-70
2021/04/08 07:32:44;;;;;;;5.30;3.53;;;2.60;99.90;;;;;;5045925;28;20178;-69
2021/04/08 07:35:18;;;;;;;9.70;3.67;;;2.70;99.90;;;;;;5046140;28;20422;-69
2021/04/08 07:37:58;;;;;;;5.63;2.93;;;2.70;99.90;;;;;;5044837;28;20183;-68
2021/04/08 07:40:26;;;;;;;6.20;3.30;;;2.60;99.90;;;;;;5042695;28;20461;-68
2021/04/08 07:42:52;;;;;;;7.17;3.73;;;2.60;99.90;;;;;;5051617;28;20914;-68
2021/04/08 07:45:30;;;;;;;4.97;2.60;;;2.50;99.90;;;;;;5049202;28;20517;-68
2021/04/08 07:48:00;;;;;;;5.40;3.13;;;2.40;99.90;;;;;;5047995;28;20252;-72
2021/04/08 07:50:26;;;;;;;6.63;3.53;;;2.50;99.90;;;;;;5033057;28;20437;-68
2021/04/08 07:52:52;;;;;;;9.70;4.37;;;2.50;99.90;;;;;;5051240;28;20447;-69
2021/04/08 07:55:21;;;;;;;3.63;3.10;;;2.50;99.90;;;;;;5050774;28;20926;-68
2021/04/08 07:57:52;;;;;;;4.70;3.37;;;2.50;99.90;;;;;;5051633;28;20181;-69
2021/04/08 08:00:39;;;;;;;6.13;3.37;;;2.60;99.90;;;;;;5031109;28;20882;-69
2021/04/08 08:03:10;;;;;;;4.73;3.37;;;2.80;99.90;;;;;;5049860;28;20428;-69
2021/04/08 08:05:42;;;;;;;4.13;3.40;;;2.80;99.90;;;;;;5050811;28;20418;-69
2021/04/08 08:08:10;;;;;;;6.23;3.30;;;2.90;99.90;;;;;;5049808;28;20422;-69
2021/04/08 08:10:40;;;;;;;8.70;3.30;;;3.00;99.90;;;;;;5049214;28;20521;-68
2021/04/08 08:13:22;;;;;;;3.60;2.90;;;3.10;99.90;;;;;;5052521;28;20426;-69
2021/04/08 08:15:48;;;;;;;4.10;3.50;;;3.10;99.90;;;;;;5047849;28;20431;-69
2021/04/08 08:18:34;;;;;;;5.23;2.90;;;3.20;99.90;;;;;;5056639;28;21203;-69
2021/04/08 08:21:11;;;;;;;7.27;3.70;;;3.00;99.90;;;;;;5051479;28;20210;-68
2021/04/08 08:23:45;;;;;;;7.37;3.97;;;2.90;99.90;;;;;;5051716;28;20414;-68
2021/04/08 08:26:39;;;;;;;4.27;3.23;;;3.00;99.90;;;;;;5049517;28;20769;-68
2021/04/08 08:29:11;;;;;;;5.90;3.63;;;2.90;99.90;;;;;;5048148;28;20420;-69
2021/04/08 08:31:50;;;;;;;7.27;3.87;;;2.90;99.90;;;;;;5050116;28;20955;-68
2021/04/08 08:34:33;;;;;;;8.30;4.17;;;2.80;99.90;;;;;;5050660;28;20433;-68
2021/04/08 08:37:08;;;;;;;5.27;3.67;;;2.90;99.90;;;;;;5050900;28;20449;-67
2021/04/08 08:39:45;;;;;;;11.53;4.13;;;2.90;99.90;;;;;;5032510;28;20475;-67
2021/04/08 08:42:14;;;;;;;4.80;3.90;;;3.00;99.90;;;;;;5051323;28;20431;-69
2021/04/08 08:44:40;;;;;;;7.77;4.03;;;3.20;99.90;;;;;;5032770;28;20826;-69
2021/04/08 08:47:33;;;;;;;4.87;3.77;;;3.40;99.90;;;;;;5034497;28;20405;-70
2021/04/08 08:50:04;;;;;;;4.63;3.90;;;3.50;99.90;;;;;;5048872;28;20418;-70
2021/04/08 08:52:36;;;;;;;9.63;3.50;;;3.40;99.90;;;;;;5050830;28;20495;-69
2021/04/08 08:55:05;;;;;;;4.50;3.90;;;3.30;99.90;;;;;;5049262;28;20416;-69
2021/04/08 08:57:32;;;;;;;6.97;3.83;;;3.40;99.90;;;;;;5052543;28;20422;-69
2021/04/08 08:59:58;;;;;;;6.43;4.17;;;3.70;99.90;;;;;;5054155;28;20469;-69
2021/04/08 09:02:24;;;;;;;5.87;3.47;;;3.70;99.90;;;;;;5055885;28;20521;-69
2021/04/08 09:04:51;;;;;;;6.13;3.60;;;3.50;99.90;;;;;;5054718;28;20425;-70
2021/04/08 09:07:18;;;;;;;6.37;4.00;;;3.40;99.90;;;;;;5054679;28;20471;-69
2021/04/08 09:09:52;;;;;;;10.53;4.83;;;3.30;99.90;;;;;;5053450;28;20989;-69
2021/04/08 09:12:19;;;;;;;6.50;4.20;;;3.40;99.90;;;;;;5056141;28;20465;-69
2021/04/08 09:14:46;;;;;;;6.77;3.47;;;3.40;99.90;;;;;;5036208;28;20432;-69
2021/04/08 09:17:13;;;;;;;7.60;4.00;;;3.50;99.90;;;;;;5057399;28;20446;-69
2021/04/08 09:19:39;;;;;;;6.37;3.83;;;3.70;99.90;;;;;;5053631;28;20959;-69
2021/04/08 09:22:10;;;;;;;7.67;3.43;;;3.80;99.90;;;;;;5053922;28;20473;-70
2021/04/08 09:24:47;;;;;;;8.03;4.17;;;4.00;99.90;;;;;;5058717;28;20412;-69
2021/04/08 09:27:13;;;;;;;6.23;3.73;;;4.40;99.90;;;;;;5052578;28;20438;-69
2021/04/08 09:29:43;;;;;;;9.13;4.20;;;4.80;99.90;;;;;;5054159;28;20422;-69
2021/04/08 09:32:28;;;;;;;6.27;3.70;;;4.90;99.90;;;;;;5049365;28;20461;-69
2021/04/08 09:35:18;;;;;;;5.63;3.97;;;4.80;99.90;;;;;;5029784;28;20498;-70
2021/04/08 09:37:51;;;;;;;7.77;4.27;;;5.00;99.90;;;;;;5053760;28;20419;-70
2021/04/08 09:40:31;;;;;;;4.60;3.30;;;5.20;99.90;;;;;;5052918;28;20497;-69
2021/04/08 09:43:03;;;;;;;7.20;3.53;;;5.30;99.90;;;;;;5052583;28;20418;-69
2021/04/08 09:45:31;;;;;;;6.07;4.20;;;5.40;99.90;;;;;;5052913;28;20431;-71
2021/04/08 09:48:16;;;;;;;4.40;3.60;;;5.60;99.90;;;;;;5054600;28;20417;-69
2021/04/08 09:50:50;;;;;;;5.13;3.47;;;5.40;99.90;;;;;;5052915;28;20454;-69
2021/04/08 09:53:18;;;;;;;4.93;3.63;;;5.10;99.90;;;;;;5053297;28;20414;-69
2021/04/08 09:55:57;;;;;;;7.97;3.77;;;4.80;99.90;;;;;;5053453;28;20898;-69
2021/04/08 09:58:25;;;;;;;12.30;4.10;;;4.50;99.90;;;;;;5053790;28;20426;-69
2021/04/08 10:00:52;;;;;;;4.73;3.30;;;4.60;99.90;;;;;;5053580;28;20550;-69
2021/04/08 10:03:29;;;;;;;6.33;3.70;;;4.70;99.90;;;;;;5052364;28;20418;-69
2021/04/08 10:05:55;;;;;;;5.13;4.10;;;4.50;99.90;;;;;;5052105;28;21141;-69
2021/04/08 10:08:22;;;;;;;5.40;4.30;;;4.60;99.90;;;;;;5053077;28;20427;-70
2021/04/08 10:10:50;;;;;;;5.30;3.60;;;4.80;99.90;;;;;;5073186;22;20216;-69
2021/04/08 10:13:33;;;;;;;7.17;3.93;;;5.20;99.90;;;;;;5048809;28;20464;-68
2021/04/08 10:16:09;;;;;;;6.40;4.30;;;5.50;99.90;;;;;;5048381;28;20416;-68
2021/04/08 10:18:35;;;;;;;7.20;3.50;;;5.70;99.90;;;;;;5055743;28;20404;-68
2021/04/08 10:21:06;;;;;;;6.90;3.57;;;5.90;99.90;;;;;;5051344;28;20468;-68
2021/04/08 10:23:38;;;;;;;8.20;4.00;;;6.30;99.90;;;;;;5050236;28;20530;-68
2021/04/08 10:26:12;;;;;;;9.10;4.13;;;6.60;99.90;;;;;;5045886;28;20945;-68
2021/04/08 10:28:41;;;;;;;7.30;3.83;;;7.00;99.90;;;;;;5049754;28;20881;-69
2021/04/08 10:31:25;;;;;;;8.70;4.30;;;6.80;99.90;;;;;;5047518;28;20439;-68
2021/04/08 10:34:01;;;;;;;6.20;3.87;;;6.80;99.90;;;;;;5033862;28;20423;-69
2021/04/08 10:36:33;;;;;;;15.23;4.20;;;6.70;99.90;;;;;;5051920;28;20805;-68
2021/04/08 10:39:21;;;;;;;8.97;4.17;;;6.50;99.90;;;;;;5051484;28;20399;-68
2021/04/08 10:42:00;;;;;;;5.87;3.57;;;5.80;99.90;;;;;;5046482;28;20451;-69
2021/04/08 10:44:28;;;;;;;4.43;3.73;;;5.50;99.90;;;;;;5031950;28;20415;-68
2021/04/08 10:46:56;;;;;;;4.40;3.10;;;5.50;99.90;;;;;;5048061;28;20415;-68
2021/04/08 10:49:26;;;;;;;5.53;3.73;;;5.60;99.90;;;;;;5049925;28;20473;-69
2021/04/08 10:51:53;;;;;;;4.90;3.23;;;5.70;99.90;;;;;;5047938;28;20857;-69
2021/04/08 10:54:19;;;;;;;10.87;4.53;;;5.90;99.90;;;;;;5034675;28;20454;-69
2021/04/08 10:56:49;;;;;;;4.13;3.30;;;6.10;99.90;;;;;;5050613;28;20477;-69
2021/04/08 10:59:25;;;;;;;8.23;4.07;;;6.40;99.90;;;;;;5041008;28;20443;-67
2021/04/08 11:01:52;;;;;;;4.10;3.20;;;6.60;99.90;;;;;;5047944;28;20460;-68
2021/04/08 11:04:21;;;;;;;8.30;4.40;;;6.80;99.90;;;;;;5050239;28;20463;-67
2021/04/08 11:06:48;;;;;;;5.33;3.50;;;6.70;99.90;;;;;;5047044;28;20977;-67
2021/04/08 11:09:28;;;;;;;5.63;3.60;;;6.60;99.90;;;;;;5033547;28;20448;-70
2021/04/08 11:11:54;;;;;;;7.60;4.17;;;6.30;99.90;;;;;;5050782;28;20468;-70
2021/04/08 11:14:34;;;;;;;9.90;4.50;;;6.30;99.90;;;;;;5051438;28;20963;-69
2021/04/08 11:17:01;;;;;;;5.53;4.50;;;6.40;99.90;;;;;;5045693;28;20955;-68
2021/04/08 11:19:27;;;;;;;6.13;4.20;;;6.50;99.90;;;;;;5051784;28;20640;-70
2021/04/08 11:21:54;;;;;;;5.43;3.97;;;6.70;99.90;;;;;;5047470;28;20543;-70
2021/04/08 11:24:19;;;;;;;6.23;3.90;;;6.80;99.90;;;;;;5051417;28;20504;-71
2021/04/08 11:26:48;;;;;;;5.40;3.83;;;7.10;99.90;;;;;;5045808;28;20533;-69
2021/04/08 11:29:40;;;;;;;6.50;3.77;;;7.20;99.90;;;;;;5051639;28;20633;-69
2021/04/08 11:32:11;;;;;;;6.20;3.50;;;7.30;99.90;;;;;;5046156;28;20817;-68
2021/04/08 11:34:40;;;;;;;6.93;4.13;;;7.10;99.30;;;;;;5049660;28;20778;-69
2021/04/08 11:37:06;;;;;;;10.60;3.50;;;7.00;99.90;;;;;;5045779;28;20497;-68
2021/04/08 11:39:33;;;;;;;9.03;3.60;;;7.00;99.60;;;;;;5050328;28;20474;-68
2021/04/08 11:42:14;;;;;;;6.83;4.23;;;6.90;99.90;;;;;;5050124;28;20535;-70
2021/04/08 11:44:40;;;;;;;6.67;4.60;;;7.10;99.90;;;;;;5035624;28;20514;-68
2021/04/08 11:47:32;;;;;;;5.27;3.97;;;7.30;99.90;;;;;;5049517;28;20871;-69
2021/04/08 11:49:58;;;;;;;6.67;4.13;;;7.50;99.90;;;;;;5048253;28;20437;-67
2021/04/08 11:52:27;;;;;;;6.40;5.40;;;7.50;99.90;;;;;;5050828;28;20968;-68
2021/04/08 11:55:08;;;;;;;7.63;4.43;;;7.20;99.90;;;;;;5045372;28;20216;-68
2021/04/08 11:57:35;;;;;;;5.83;4.60;;;6.70;99.90;;;;;;5047344;28;20810;-67
2021/04/08 12:00:08;;;;;;;8.80;4.83;;;6.40;99.90;;;;;;5051549;28;20466;-68
2021/04/08 12:02:36;;;;;;;4.33;3.83;;;6.30;99.90;;;;;;5032754;28;20460;-69
2021/04/08 12:05:10;;;;;;;6.10;4.27;;;6.30;99.90;;;;;;5048722;28;20921;-68
2021/04/08 12:07:44;;;;;;;4.90;4.33;;;6.40;99.90;;;;;;5047645;28;20844;-68
2021/04/08 12:10:29;;;;;;;8.53;4.50;;;6.60;99.90;;;;;;5044113;28;20422;-68
2021/04/08 12:12:56;;;;;;;5.73;4.20;;;6.80;99.90;;;;;;5049797;28;20507;-68
2021/04/08 12:15:32;;;;;;;5.17;4.27;;;7.20;99.90;;;;;;5050997;28;20450;-68
2021/04/08 12:17:58;;;;;;;12.93;4.60;;;7.50;99.90;;;;;;5050013;28;20798;-67
2021/04/08 12:20:24;;;;;;;8.53;5.20;;;7.50;99.90;;;;;;5045326;28;20463;-67
2021/04/08 12:22:51;;;;;;;9.23;4.20;;;7.60;99.90;;;;;;5046210;28;20442;-68
2021/04/08 12:25:19;;;;;;;7.90;3.87;;;7.50;99.90;;;;;;5050367;28;20431;-68
2021/04/08 12:27:46;;;;;;;4.50;3.53;;;7.10;99.90;;;;;;5046336;28;20434;-68
2021/04/08 12:30:13;;;;;;;5.40;4.40;;;6.90;99.90;;;;;;5046297;28;20452;-69
2021/04/08 12:32:39;;;;;;;6.60;4.33;;;6.90;99.90;;;;;;5050261;28;20486;-68
2021/04/08 12:35:07;;;;;;;6.50;4.50;;;7.00;99.90;;;;;;5034245;28;20455;-68
2021/04/08 12:37:33;;;;;;;6.30;4.60;;;7.10;99.90;;;;;;5033668;28;20432;-68
2021/04/08 12:39:58;;;;;;;10.80;4.47;;;7.20;99.90;;;;;;5049753;28;20933;-69
2021/04/08 12:42:25;;;;;;;7.77;4.40;;;6.90;99.90;;;;;;5050979;28;20257;-67
2021/04/08 12:44:51;;;;;;;12.60;5.80;;;6.90;99.90;;;;;;5050155;28;20183;-68
2021/04/08 12:47:18;;;;;;;6.87;5.00;;;7.00;99.90;;;;;;5053720;28;20447;-68
2021/04/08 12:49:44;;;;;;;7.80;4.30;;;7.20;99.90;;;;;;5054492;28;20269;-68
2021/04/08 12:52:09;;;;;;;7.20;4.73;;;7.20;99.90;;;;;;5035738;28;20534;-68
2021/04/08 12:54:35;;;;;;;7.10;4.30;;;7.30;99.90;;;;;;5054424;28;20555;-69
2021/04/08 12:57:01;;;;;;;4.50;3.80;;;7.40;99.90;;;;;;5050803;28;20185;-68
2021/04/08 12:59:27;;;;;;;6.07;4.27;;;7.30;99.90;;;;;;5050102;28;20208;-69
2021/04/08 13:01:53;;;;;;;5.10;4.10;;;7.50;99.90;;;;;;5052009;28;20465;-68
2021/04/08 13:04:18;;;;;;;8.77;4.60;;;7.60;99.90;;;;;;5053722;28;20176;-68
2021/04/08 13:06:44;;;;;;;4.30;3.30;;;7.60;99.60;;;;;;5053345;28;20178;-68
2021/04/08 13:09:10;;;;;;;6.80;4.17;;;7.80;99.90;;;;;;5051925;28;20206;-68